sensor_id;sensor_type;location;lat;lon;timestamp;temperature;humidity
1948;DHT22;974;52.400;9.818;2023-01-29T00:02:07;2.00;99.90
1948;DHT22;974;52.400;9.818;2023-01-29T00:04:32;2.00;99.90
1948;DHT22;974;52.400;9.818;2023-01-29T00:06:58;2.10;99.90
1948;DHT22;974;52.400;9.818;2023-01-29T00:09:24;2.10;99.90
1948;DHT22;974;52.400;9.818;2023-01-29T00:11:49;2.10;99.90
1948;DHT22;974;52.400;9.818;2023-01-29T00:14:15;2.10;99.90
1948;DHT22;974;52.400;9.818;2023-01-29T00:16:40;2.10;99.90
1948;DHT22;974;52.400;9.818;2023-01-29T00:19:06;2.00;99.90
1948;DHT22;974;52.400;9.818;2023-01-29T00:21:31;2.00;99.90
1948;DHT22;974;52.400;9.818;2023-01-29T00:23:58;2.00;99.90
1948;DHT22;974;52.400;9.818;2023-01-29T00:26:24;2.00;99.90
1948;DHT22;974;52.400;9.818;2023-01-29T00:28:50;2.00;99.90
1948;DHT22;974;52.400;9.818;2023-01-29T00:31:20;2.00;99.90
1948;DHT22;974;52.400;9.818;2023-01-29T00:33:47;1.90;99.90
1948;DHT22;974;52.400;9.818;2023-01-29T00:36:14;2.00;99.90
1948;DHT22;974;52.400;9.818;2023-01-29T00:38:40;2.00;99.90
1948;DHT22;974;52.400;9.818;2023-01-29T00:41:14;2.00;99.90
1948;DHT22;974;52.400;9.818;2023-01-29T00:43:59;2.00;99.90
1948;DHT22;974;52.400;9.818;2023-01-29T00:46:44;2.00;99.90
1948;DHT22;974;52.400;9.818;2023-01-29T00:49:10;2.00;99.90
1948;DHT22;974;52.400;9.818;2023-01-29T00:51:36;2.00;99.90
1948;DHT22;974;52.400;9.818;2023-01-29T00:54:03;1.90;99.90
1948;DHT22;974;52.400;9.818;2023-01-29T00:56:32;1.90;99.90
1948;DHT22;974;52.400;9.818;2023-01-29T00:58:57;1.90;99.90
1948;DHT22;974;52.400;9.818;2023-01-29T01:01:23;1.90;99.90
1948;DHT22;974;52.400;9.818;2023-01-29T01:04:09;1.90;99.90
1948;DHT22;974;52.400;9.818;2023-01-29T01:06:39;1.90;99.90
1948;DHT22;974;52.400;9.818;2023-01-29T01:09:05;1.90;99.90
1948;DHT22;974;52.400;9.818;2023-01-29T01:11:50;2.00;99.90
1948;DHT22;974;52.400;9.818;2023-01-29T01:14:16;2.00;99.90
1948;DHT22;974;52.400;9.818;2023-01-29T01:16:43;1.90;99.90
1948;DHT22;974;52.400;9.818;2023-01-29T01:19:09;2.00;99.90
1948;DHT22;974;52.400;9.818;2023-01-29T01:21:35;1.90;99.90
1948;DHT22;974;52.400;9.818;2023-01-29T01:24:00;1.90;99.90
1948;DHT22;974;52.400;9.818;2023-01-29T01:26:26;1.90;99.90
1948;DHT22;974;52.400;9.818;2023-01-29T01:28:52;1.90;99.90
1948;DHT22;974;52.400;9.818;2023-01-29T01:31:17;1.90;99.90
1948;DHT22;974;52.400;9.818;2023-01-29T01:33:43;1.90;99.90
1948;DHT22;974;52.400;9.818;2023-01-29T01:36:08;1.90;99.90
1948;DHT22;974;52.400;9.818;2023-01-29T01:38:36;1.90;99.90
1948;DHT22;974;52.400;9.818;2023-01-29T01:41:10;1.80;99.90
1948;DHT22;974;52.400;9.818;2023-01-29T01:43:57;1.80;99.90
1948;DHT22;974;52.400;9.818;2023-01-29T01:46:25;1.90;99.90
1948;DHT22;974;52.400;9.818;2023-01-29T01:49:09;1.80;99.90
1948;DHT22;974;52.400;9.818;2023-01-29T01:51:39;1.80;99.90
1948;DHT22;974;52.400;9.818;2023-01-29T01:54:09;1.80;99.90
1948;DHT22;974;52.400;9.818;2023-01-29T01:56:40;1.70;99.90
1948;DHT22;974;52.400;9.818;2023-01-29T01:59:13;1.70;99.90
1948;DHT22;974;52.400;9.818;2023-01-29T02:01:41;1.70;99.90
1948;DHT22;974;52.400;9.818;2023-01-29T02:04:14;1.60;99.90
1948;DHT22;974;52.400;9.818;2023-01-29T02:07:02;1.60;99.90
1948;DHT22;974;52.400;9.818;2023-01-29T02:09:52;1.60;99.90
1948;DHT22;974;52.400;9.818;2023-01-29T02:12:20;1.50;99.90
1948;DHT22;974;52.400;9.818;2023-01-29T02:14:45;1.60;99.90
1948;DHT22;974;52.400;9.818;2023-01-29T02:17:16;1.40;99.90
1948;DHT22;974;52.400;9.818;2023-01-29T02:22:42;1.30;99.90
1948;DHT22;974;52.400;9.818;2023-01-29T02:25:32;1.40;99.90
1948;DHT22;974;52.400;9.818;2023-01-29T02:28:21;1.40;99.90
1948;DHT22;974;52.400;9.818;2023-01-29T02:36:04;1.30;99.90
1948;DHT22;974;52.400;9.818;2023-01-29T02:41:15;1.50;99.90
1948;DHT22;974;52.400;9.818;2023-01-29T02:43:58;1.40;99.90
1948;DHT22;974;52.400;9.818;2023-01-29T02:46:34;1.50;99.90
1948;DHT22;974;52.400;9.818;2023-01-29T02:49:21;1.40;99.90
1948;DHT22;974;52.400;9.818;2023-01-29T02:51:57;1.50;99.90
1948;DHT22;974;52.400;9.818;2023-01-29T02:54:42;1.50;99.90
1948;DHT22;974;52.400;9.818;2023-01-29T02:57:24;1.60;99.90
1948;DHT22;974;52.400;9.818;2023-01-29T02:59:57;1.60;99.90
1948;DHT22;974;52.400;9.818;2023-01-29T03:05:15;1.80;99.90
1948;DHT22;974;52.400;9.818;2023-01-29T03:07:49;1.90;99.90
1948;DHT22;974;52.400;9.818;2023-01-29T03:10:22;1.80;99.90
1948;DHT22;974;52.400;9.818;2023-01-29T03:12:56;1.80;99.90
1948;DHT22;974;52.400;9.818;2023-01-29T03:15:33;1.90;99.90
1948;DHT22;974;52.400;9.818;2023-01-29T03:18:17;1.80;99.90
1948;DHT22;974;52.400;9.818;2023-01-29T03:20:48;1.80;99.90
1948;DHT22;974;52.400;9.818;2023-01-29T03:23:28;2.00;99.90
1948;DHT22;974;52.400;9.818;2023-01-29T03:26:20;1.80;99.90
1948;DHT22;974;52.400;9.818;2023-01-29T03:29:05;1.80;99.90
1948;DHT22;974;52.400;9.818;2023-01-29T03:31:52;1.70;99.90
1948;DHT22;974;52.400;9.818;2023-01-29T03:34:35;1.70;99.90
1948;DHT22;974;52.400;9.818;2023-01-29T03:37:19;1.70;99.90
1948;DHT22;974;52.400;9.818;2023-01-29T03:39:46;1.70;99.90
1948;DHT22;974;52.400;9.818;2023-01-29T03:44:53;1.70;99.90
1948;DHT22;974;52.400;9.818;2023-01-29T03:47:40;1.70;99.90
1948;DHT22;974;52.400;9.818;2023-01-29T03:50:27;1.80;99.90
1948;DHT22;974;52.400;9.818;2023-01-29T03:53:08;1.80;99.90
1948;DHT22;974;52.400;9.818;2023-01-29T03:55:46;1.70;99.90
1948;DHT22;974;52.400;9.818;2023-01-29T04:01:12;1.70;99.90
1948;DHT22;974;52.400;9.818;2023-01-29T04:03:42;2.00;99.90
1948;DHT22;974;52.400;9.818;2023-01-29T04:06:22;1.80;99.90
1948;DHT22;974;52.400;9.818;2023-01-29T04:09:02;1.80;99.90
1948;DHT22;974;52.400;9.818;2023-01-29T04:11:28;1.80;99.90
1948;DHT22;974;52.400;9.818;2023-01-29T04:13:56;1.80;99.90
1948;DHT22;974;52.400;9.818;2023-01-29T04:16:28;1.90;99.90
1948;DHT22;974;52.400;9.818;2023-01-29T04:18:55;1.90;99.90
1948;DHT22;974;52.400;9.818;2023-01-29T04:21:21;1.90;99.90
1948;DHT22;974;52.400;9.818;2023-01-29T04:23:47;1.80;99.90
1948;DHT22;974;52.400;9.818;2023-01-29T04:26:30;1.80;99.90
1948;DHT22;974;52.400;9.818;2023-01-29T04:31:47;1.90;99.90
1948;DHT22;974;52.400;9.818;2023-01-29T04:35:19;1.90;99.90
1948;DHT22;974;52.400;9.818;2023-01-29T04:37:36;1.90;99.90
1948;DHT22;974;52.400;9.818;2023-01-29T04:43:02;1.90;99.90
1948;DHT22;974;52.400;9.818;2023-01-29T04:46:01;2.00;99.90
1948;DHT22;974;52.400;9.818;2023-01-29T04:48:45;2.00;99.90
1948;DHT22;974;52.400;9.818;2023-01-29T04:54:15;1.90;99.90
1948;DHT22;974;52.400;9.818;2023-01-29T04:57:11;1.90;99.90
1948;DHT22;974;52.400;9.818;2023-01-29T04:59:46;2.00;99.90
1948;DHT22;974;52.400;9.818;2023-01-29T05:02:13;2.00;99.90
1948;DHT22;974;52.400;9.818;2023-01-29T05:04:40;1.90;99.90
1948;DHT22;974;52.400;9.818;2023-01-29T05:07:10;2.00;99.90
1948;DHT22;974;52.400;9.818;2023-01-29T05:09:37;2.00;99.90
1948;DHT22;974;52.400;9.818;2023-01-29T05:12:06;1.90;99.90
1948;DHT22;974;52.400;9.818;2023-01-29T05:14:34;2.00;99.90
1948;DHT22;974;52.400;9.818;2023-01-29T05:17:02;2.00;99.90
1948;DHT22;974;52.400;9.818;2023-01-29T05:19:28;2.00;99.90
1948;DHT22;974;52.400;9.818;2023-01-29T05:21:54;2.10;99.90
1948;DHT22;974;52.400;9.818;2023-01-29T05:24:22;2.10;99.90
1948;DHT22;974;52.400;9.818;2023-01-29T05:26:50;2.10;99.90
1948;DHT22;974;52.400;9.818;2023-01-29T05:29:34;2.10;99.90
1948;DHT22;974;52.400;9.818;2023-01-29T05:32:00;2.20;99.90
1948;DHT22;974;52.400;9.818;2023-01-29T05:34:26;2.00;99.90
1948;DHT22;974;52.400;9.818;2023-01-29T05:36:51;2.10;99.90
1948;DHT22;974;52.400;9.818;2023-01-29T05:39:17;1.90;99.90
1948;DHT22;974;52.400;9.818;2023-01-29T05:41:43;2.00;99.90
1948;DHT22;974;52.400;9.818;2023-01-29T05:44:09;2.10;99.90
1948;DHT22;974;52.400;9.818;2023-01-29T05:46:35;2.00;99.90
1948;DHT22;974;52.400;9.818;2023-01-29T05:49:00;1.90;99.90
1948;DHT22;974;52.400;9.818;2023-01-29T05:51:26;2.10;99.90
1948;DHT22;974;52.400;9.818;2023-01-29T05:53:51;2.10;99.90
1948;DHT22;974;52.400;9.818;2023-01-29T05:56:17;2.20;99.90
1948;DHT22;974;52.400;9.818;2023-01-29T05:58:43;2.20;99.90
1948;DHT22;974;52.400;9.818;2023-01-29T06:01:11;2.20;99.90
1948;DHT22;974;52.400;9.818;2023-01-29T06:03:36;2.10;99.90
1948;DHT22;974;52.400;9.818;2023-01-29T06:06:02;2.20;99.90
1948;DHT22;974;52.400;9.818;2023-01-29T06:08:27;2.20;99.90
1948;DHT22;974;52.400;9.818;2023-01-29T06:10:53;2.20;99.90
1948;DHT22;974;52.400;9.818;2023-01-29T06:13:18;2.20;99.90
1948;DHT22;974;52.400;9.818;2023-01-29T06:15:44;2.30;99.90
1948;DHT22;974;52.400;9.818;2023-01-29T06:18:10;2.30;99.90
1948;DHT22;974;52.400;9.818;2023-01-29T06:20:36;2.20;99.90
1948;DHT22;974;52.400;9.818;2023-01-29T06:23:01;2.30;99.90
1948;DHT22;974;52.400;9.818;2023-01-29T06:25:27;2.40;99.90
1948;DHT22;974;52.400;9.818;2023-01-29T06:27:52;2.40;99.90
1948;DHT22;974;52.400;9.818;2023-01-29T06:30:18;2.30;99.90
1948;DHT22;974;52.400;9.818;2023-01-29T06:32:43;2.40;99.90
1948;DHT22;974;52.400;9.818;2023-01-29T06:35:09;2.30;99.90
1948;DHT22;974;52.400;9.818;2023-01-29T06:37:35;2.20;99.90
1948;DHT22;974;52.400;9.818;2023-01-29T06:40:00;2.30;99.90
1948;DHT22;974;52.400;9.818;2023-01-29T06:42:26;2.30;99.90
1948;DHT22;974;52.400;9.818;2023-01-29T06:44:53;2.30;99.90
1948;DHT22;974;52.400;9.818;2023-01-29T06:47:19;2.20;99.90
1948;DHT22;974;52.400;9.818;2023-01-29T06:49:44;2.30;99.90
1948;DHT22;974;52.400;9.818;2023-01-29T06:52:10;2.30;99.90
1948;DHT22;974;52.400;9.818;2023-01-29T06:54:35;2.40;99.90
1948;DHT22;974;52.400;9.818;2023-01-29T06:57:01;2.40;99.90
1948;DHT22;974;52.400;9.818;2023-01-29T06:59:26;2.40;99.90
1948;DHT22;974;52.400;9.818;2023-01-29T07:01:52;2.50;99.90
1948;DHT22;974;52.400;9.818;2023-01-29T07:04:17;2.50;99.90
1948;DHT22;974;52.400;9.818;2023-01-29T07:06:42;2.40;99.90
1948;DHT22;974;52.400;9.818;2023-01-29T07:09:11;2.50;99.90
1948;DHT22;974;52.400;9.818;2023-01-29T07:11:37;2.50;99.90
1948;DHT22;974;52.400;9.818;2023-01-29T07:14:02;2.40;99.90
1948;DHT22;974;52.400;9.818;2023-01-29T07:16:28;2.50;99.90
1948;DHT22;974;52.400;9.818;2023-01-29T07:18:53;2.40;99.90
1948;DHT22;974;52.400;9.818;2023-01-29T07:21:19;2.50;99.90
1948;DHT22;974;52.400;9.818;2023-01-29T07:23:44;2.40;99.90
1948;DHT22;974;52.400;9.818;2023-01-29T07:26:10;2.30;99.90
1948;DHT22;974;52.400;9.818;2023-01-29T07:28:37;2.30;99.90
1948;DHT22;974;52.400;9.818;2023-01-29T07:31:03;2.40;99.90
1948;DHT22;974;52.400;9.818;2023-01-29T07:33:29;2.20;99.90
1948;DHT22;974;52.400;9.818;2023-01-29T07:35:54;2.20;99.90
1948;DHT22;974;52.400;9.818;2023-01-29T07:38:20;2.30;99.90
1948;DHT22;974;52.400;9.818;2023-01-29T07:40:46;2.30;99.90
1948;DHT22;974;52.400;9.818;2023-01-29T07:43:11;2.30;99.90
1948;DHT22;974;52.400;9.818;2023-01-29T07:45:38;2.30;99.90
1948;DHT22;974;52.400;9.818;2023-01-29T07:48:05;2.40;99.90
1948;DHT22;974;52.400;9.818;2023-01-29T07:50:32;2.10;99.90
1948;DHT22;974;52.400;9.818;2023-01-29T07:52:58;2.30;99.90
1948;DHT22;974;52.400;9.818;2023-01-29T07:55:24;2.30;99.90
1948;DHT22;974;52.400;9.818;2023-01-29T07:58:00;2.30;99.90
1948;DHT22;974;52.400;9.818;2023-01-29T08:00:27;2.40;99.90
1948;DHT22;974;52.400;9.818;2023-01-29T08:02:52;2.40;99.90
1948;DHT22;974;52.400;9.818;2023-01-29T08:05:18;2.40;99.90
1948;DHT22;974;52.400;9.818;2023-01-29T08:07:44;2.30;99.90
1948;DHT22;974;52.400;9.818;2023-01-29T08:10:10;2.20;99.90
1948;DHT22;974;52.400;9.818;2023-01-29T08:12:35;2.30;99.90
1948;DHT22;974;52.400;9.818;2023-01-29T08:15:01;2.20;99.90
1948;DHT22;974;52.400;9.818;2023-01-29T08:17:26;2.30;99.90
1948;DHT22;974;52.400;9.818;2023-01-29T08:19:52;2.20;99.90
1948;DHT22;974;52.400;9.818;2023-01-29T08:22:17;2.30;99.90
1948;DHT22;974;52.400;9.818;2023-01-29T08:24:43;2.20;99.90
1948;DHT22;974;52.400;9.818;2023-01-29T08:27:08;2.20;99.90
1948;DHT22;974;52.400;9.818;2023-01-29T08:29:34;2.30;99.90
1948;DHT22;974;52.400;9.818;2023-01-29T08:32:00;2.40;99.90
1948;DHT22;974;52.400;9.818;2023-01-29T08:34:26;2.40;99.90
1948;DHT22;974;52.400;9.818;2023-01-29T08:36:51;2.40;99.90
1948;DHT22;974;52.400;9.818;2023-01-29T08:39:17;2.40;99.90
1948;DHT22;974;52.400;9.818;2023-01-29T08:41:43;2.40;99.90
1948;DHT22;974;52.400;9.818;2023-01-29T08:44:08;2.40;99.90
1948;DHT22;974;52.400;9.818;2023-01-29T08:46:34;2.30;99.90
1948;DHT22;974;52.400;9.818;2023-01-29T08:49:00;2.30;99.90
1948;DHT22;974;52.400;9.818;2023-01-29T08:51:25;2.30;99.90
1948;DHT22;974;52.400;9.818;2023-01-29T08:53:51;2.30;99.90
1948;DHT22;974;52.400;9.818;2023-01-29T08:56:16;2.20;99.90
1948;DHT22;974;52.400;9.818;2023-01-29T08:58:42;2.30;99.90
1948;DHT22;974;52.400;9.818;2023-01-29T09:01:11;2.20;99.90
1948;DHT22;974;52.400;9.818;2023-01-29T09:03:37;2.30;99.90
1948;DHT22;974;52.400;9.818;2023-01-29T09:06:05;2.40;99.90
1948;DHT22;974;52.400;9.818;2023-01-29T09:08:31;2.30;99.90
1948;DHT22;974;52.400;9.818;2023-01-29T09:10:58;2.40;99.90
1948;DHT22;974;52.400;9.818;2023-01-29T09:13:24;2.30;99.90
1948;DHT22;974;52.400;9.818;2023-01-29T09:15:50;2.30;99.90
1948;DHT22;974;52.400;9.818;2023-01-29T09:18:15;2.30;99.90
1948;DHT22;974;52.400;9.818;2023-01-29T09:20:41;2.40;99.90
1948;DHT22;974;52.400;9.818;2023-01-29T09:23:07;2.40;99.90
1948;DHT22;974;52.400;9.818;2023-01-29T09:25:33;2.40;99.90
1948;DHT22;974;52.400;9.818;2023-01-29T09:27:59;2.30;99.90
1948;DHT22;974;52.400;9.818;2023-01-29T09:30:24;2.50;99.90
1948;DHT22;974;52.400;9.818;2023-01-29T09:32:50;2.50;99.90
1948;DHT22;974;52.400;9.818;2023-01-29T09:35:15;2.50;99.90
1948;DHT22;974;52.400;9.818;2023-01-29T09:37:41;2.40;99.90
1948;DHT22;974;52.400;9.818;2023-01-29T09:40:13;2.40;99.90
1948;DHT22;974;52.400;9.818;2023-01-29T09:42:49;2.50;99.90
1948;DHT22;974;52.400;9.818;2023-01-29T09:45:22;2.50;99.90
1948;DHT22;974;52.400;9.818;2023-01-29T09:47:54;2.70;99.90
1948;DHT22;974;52.400;9.818;2023-01-29T09:50:32;2.80;99.90
1948;DHT22;974;52.400;9.818;2023-01-29T09:53:36;2.90;99.90
1948;DHT22;974;52.400;9.818;2023-01-29T09:56:19;3.00;99.90
1948;DHT22;974;52.400;9.818;2023-01-29T09:58:45;3.00;99.90
1948;DHT22;974;52.400;9.818;2023-01-29T10:01:20;3.00;99.90
1948;DHT22;974;52.400;9.818;2023-01-29T10:07:11;2.80;99.90
1948;DHT22;974;52.400;9.818;2023-01-29T10:12:52;3.00;99.90
1948;DHT22;974;52.400;9.818;2023-01-29T10:15:53;2.90;99.90
1948;DHT22;974;52.400;9.818;2023-01-29T10:18:48;2.80;99.90
1948;DHT22;974;52.400;9.818;2023-01-29T10:21:27;2.90;99.90
1948;DHT22;974;52.400;9.818;2023-01-29T10:26:30;2.80;99.90
1948;DHT22;974;52.400;9.818;2023-01-29T10:28:58;2.90;99.90
1948;DHT22;974;52.400;9.818;2023-01-29T10:31:29;2.80;99.90
1948;DHT22;974;52.400;9.818;2023-01-29T10:34:29;2.90;99.90
1948;DHT22;974;52.400;9.818;2023-01-29T10:36:56;3.00;99.90
1948;DHT22;974;52.400;9.818;2023-01-29T10:39:23;3.00;99.90
1948;DHT22;974;52.400;9.818;2023-01-29T10:42:25;3.00;99.90
1948;DHT22;974;52.400;9.818;2023-01-29T10:45:00;3.00;99.90
1948;DHT22;974;52.400;9.818;2023-01-29T10:53:23;3.20;99.90
1948;DHT22;974;52.400;9.818;2023-01-29T10:58:40;3.30;99.90
1948;DHT22;974;52.400;9.818;2023-01-29T11:01:10;3.10;99.90
1948;DHT22;974;52.400;9.818;2023-01-29T11:03:36;3.10;99.90
1948;DHT22;974;52.400;9.818;2023-01-29T11:06:18;3.00;99.90
1948;DHT22;974;52.400;9.818;2023-01-29T11:08:52;3.10;99.90
1948;DHT22;974;52.400;9.818;2023-01-29T11:11:20;3.00;99.90
1948;DHT22;974;52.400;9.818;2023-01-29T11:13:59;3.20;99.90
1948;DHT22;974;52.400;9.818;2023-01-29T11:16:29;3.30;99.90
1948;DHT22;974;52.400;9.818;2023-01-29T11:18:59;3.20;99.90
1948;DHT22;974;52.400;9.818;2023-01-29T11:21:27;3.20;99.90
1948;DHT22;974;52.400;9.818;2023-01-29T11:24:06;3.20;99.90
1948;DHT22;974;52.400;9.818;2023-01-29T11:26:36;3.20;99.90
1948;DHT22;974;52.400;9.818;2023-01-29T11:29:02;3.20;99.90
1948;DHT22;974;52.400;9.818;2023-01-29T11:31:37;3.10;99.90
1948;DHT22;974;52.400;9.818;2023-01-29T11:34:19;3.10;99.90
1948;DHT22;974;52.400;9.818;2023-01-29T11:36:45;3.20;99.90
1948;DHT22;974;52.400;9.818;2023-01-29T11:44:30;3.30;99.90
1948;DHT22;974;52.400;9.818;2023-01-29T11:47:10;3.30;99.90
1948;DHT22;974;52.400;9.818;2023-01-29T11:49:37;3.40;99.90
1948;DHT22;974;52.400;9.818;2023-01-29T11:52:06;3.30;99.90
1948;DHT22;974;52.400;9.818;2023-01-29T11:54:37;3.30;99.90
1948;DHT22;974;52.400;9.818;2023-01-29T11:57:04;3.30;99.90
1948;DHT22;974;52.400;9.818;2023-01-29T11:59:37;3.30;99.90
1948;DHT22;974;52.400;9.818;2023-01-29T12:02:42;3.30;99.90
1948;DHT22;974;52.400;9.818;2023-01-29T12:05:18;3.40;99.90
1948;DHT22;974;52.400;9.818;2023-01-29T12:07:46;3.50;99.90
1948;DHT22;974;52.400;9.818;2023-01-29T12:13:14;3.60;99.90
1948;DHT22;974;52.400;9.818;2023-01-29T12:15:47;3.40;99.90
1948;DHT22;974;52.400;9.818;2023-01-29T12:18:28;3.30;99.90
1948;DHT22;974;52.400;9.818;2023-01-29T12:21:01;3.40;99.90
1948;DHT22;974;52.400;9.818;2023-01-29T12:23:35;3.50;99.90
1948;DHT22;974;52.400;9.818;2023-01-29T12:26:35;3.50;99.90
1948;DHT22;974;52.400;9.818;2023-01-29T12:29:32;3.50;99.90
1948;DHT22;974;52.400;9.818;2023-01-29T12:32:28;3.50;99.90
1948;DHT22;974;52.400;9.818;2023-01-29T12:35:02;3.50;99.90
1948;DHT22;974;52.400;9.818;2023-01-29T12:37:39;3.50;99.90
1948;DHT22;974;52.400;9.818;2023-01-29T12:40:15;3.30;99.90
1948;DHT22;974;52.400;9.818;2023-01-29T12:42:43;3.40;99.90
1948;DHT22;974;52.400;9.818;2023-01-29T12:45:18;3.20;99.90
1948;DHT22;974;52.400;9.818;2023-01-29T12:48:23;3.20;99.90
1948;DHT22;974;52.400;9.818;2023-01-29T12:50:41;3.20;99.90
1948;DHT22;974;52.400;9.818;2023-01-29T12:53:32;3.20;99.90
1948;DHT22;974;52.400;9.818;2023-01-29T12:56:04;3.40;99.90
1948;DHT22;974;52.400;9.818;2023-01-29T12:58:49;3.40;99.90
1948;DHT22;974;52.400;9.818;2023-01-29T13:01:22;3.40;99.90
1948;DHT22;974;52.400;9.818;2023-01-29T13:04:10;3.40;99.90
1948;DHT22;974;52.400;9.818;2023-01-29T13:06:41;3.40;99.90
1948;DHT22;974;52.400;9.818;2023-01-29T13:09:16;3.30;99.90
1948;DHT22;974;52.400;9.818;2023-01-29T13:11:56;3.30;99.90
1948;DHT22;974;52.400;9.818;2023-01-29T13:14:39;3.30;99.90
1948;DHT22;974;52.400;9.818;2023-01-29T13:17:16;3.40;99.90
1948;DHT22;974;52.400;9.818;2023-01-29T13:19:45;3.30;99.90
1948;DHT22;974;52.400;9.818;2023-01-29T13:22:35;3.30;99.90
1948;DHT22;974;52.400;9.818;2023-01-29T13:25:02;3.30;99.90
1948;DHT22;974;52.400;9.818;2023-01-29T13:27:30;3.30;99.90
1948;DHT22;974;52.400;9.818;2023-01-29T13:29:56;3.40;99.90
1948;DHT22;974;52.400;9.818;2023-01-29T13:32:30;3.50;99.90
1948;DHT22;974;52.400;9.818;2023-01-29T13:35:02;3.50;99.90
1948;DHT22;974;52.400;9.818;2023-01-29T13:37:39;3.50;99.90
1948;DHT22;974;52.400;9.818;2023-01-29T13:40:06;3.50;99.90
1948;DHT22;974;52.400;9.818;2023-01-29T13:45:05;3.40;99.90
1948;DHT22;974;52.400;9.818;2023-01-29T13:47:36;3.40;99.90
1948;DHT22;974;52.400;9.818;2023-01-29T13:50:23;3.40;99.90
1948;DHT22;974;52.400;9.818;2023-01-29T13:52:58;3.50;99.90
1948;DHT22;974;52.400;9.818;2023-01-29T13:55:30;3.50;99.90
1948;DHT22;974;52.400;9.818;2023-01-29T13:57:59;3.20;99.90
1948;DHT22;974;52.400;9.818;2023-01-29T14:08:00;3.20;99.90
1948;DHT22;974;52.400;9.818;2023-01-29T14:10:28;3.10;99.90
1948;DHT22;974;52.400;9.818;2023-01-29T14:15:44;3.10;99.90
1948;DHT22;974;52.400;9.818;2023-01-29T14:18:16;3.10;99.90
1948;DHT22;974;52.400;9.818;2023-01-29T14:21:03;3.10;99.90
1948;DHT22;974;52.400;9.818;2023-01-29T14:23:44;3.10;99.90
1948;DHT22;974;52.400;9.818;2023-01-29T14:28:57;3.20;99.90
1948;DHT22;974;52.400;9.818;2023-01-29T14:34:05;3.20;99.90
1948;DHT22;974;52.400;9.818;2023-01-29T14:36:41;3.10;99.90
1948;DHT22;974;52.400;9.818;2023-01-29T14:39:40;3.20;99.90
1948;DHT22;974;52.400;9.818;2023-01-29T14:42:35;3.20;99.90
1948;DHT22;974;52.400;9.818;2023-01-29T14:59:35;2.90;99.90
1948;DHT22;974;52.400;9.818;2023-01-29T15:01:51;3.10;99.90
1948;DHT22;974;52.400;9.818;2023-01-29T15:04:37;3.10;99.90
1948;DHT22;974;52.400;9.818;2023-01-29T15:07:15;3.00;99.90
1948;DHT22;974;52.400;9.818;2023-01-29T15:10:25;2.90;99.90
1948;DHT22;974;52.400;9.818;2023-01-29T15:13:02;2.80;99.90
1948;DHT22;974;52.400;9.818;2023-01-29T15:15:55;2.70;99.90
1948;DHT22;974;52.400;9.818;2023-01-29T15:18:37;2.70;99.90
1948;DHT22;974;52.400;9.818;2023-01-29T15:21:10;2.80;99.90
1948;DHT22;974;52.400;9.818;2023-01-29T15:23:36;2.80;99.90
1948;DHT22;974;52.400;9.818;2023-01-29T15:26:04;2.80;99.90
1948;DHT22;974;52.400;9.818;2023-01-29T15:28:31;2.70;99.90
1948;DHT22;974;52.400;9.818;2023-01-29T15:30:59;2.80;99.90
1948;DHT22;974;52.400;9.818;2023-01-29T15:33:26;2.80;99.90
1948;DHT22;974;52.400;9.818;2023-01-29T15:35:58;2.60;99.90
1948;DHT22;974;52.400;9.818;2023-01-29T15:38:24;2.60;99.90
1948;DHT22;974;52.400;9.818;2023-01-29T15:43:23;2.60;99.90
1948;DHT22;974;52.400;9.818;2023-01-29T15:45:51;2.60;99.90
1948;DHT22;974;52.400;9.818;2023-01-29T15:48:19;2.60;99.90
1948;DHT22;974;52.400;9.818;2023-01-29T15:50:48;2.60;99.90
1948;DHT22;974;52.400;9.818;2023-01-29T15:53:19;2.50;99.90
1948;DHT22;974;52.400;9.818;2023-01-29T15:55:46;2.60;99.90
1948;DHT22;974;52.400;9.818;2023-01-29T15:58:18;2.60;99.90
1948;DHT22;974;52.400;9.818;2023-01-29T16:00:50;2.60;99.90
1948;DHT22;974;52.400;9.818;2023-01-29T16:03:22;2.70;99.90
1948;DHT22;974;52.400;9.818;2023-01-29T16:05:48;2.60;99.90
1948;DHT22;974;52.400;9.818;2023-01-29T16:08:14;2.60;99.90
1948;DHT22;974;52.400;9.818;2023-01-29T16:10:41;2.70;99.90
1948;DHT22;974;52.400;9.818;2023-01-29T16:13:27;2.70;99.90
1948;DHT22;974;52.400;9.818;2023-01-29T16:15:55;2.70;99.90
1948;DHT22;974;52.400;9.818;2023-01-29T16:18:24;2.70;99.90
1948;DHT22;974;52.400;9.818;2023-01-29T16:20:54;2.70;99.90
1948;DHT22;974;52.400;9.818;2023-01-29T16:23:27;2.80;99.90
1948;DHT22;974;52.400;9.818;2023-01-29T16:26:00;3.00;99.90
1948;DHT22;974;52.400;9.818;2023-01-29T16:28:26;2.80;99.90
1948;DHT22;974;52.400;9.818;2023-01-29T16:30:58;2.70;99.90
1948;DHT22;974;52.400;9.818;2023-01-29T16:33:34;2.80;99.90
1948;DHT22;974;52.400;9.818;2023-01-29T16:36:01;2.80;99.90
1948;DHT22;974;52.400;9.818;2023-01-29T16:38:32;2.80;99.90
1948;DHT22;974;52.400;9.818;2023-01-29T16:41:27;2.80;99.90
1948;DHT22;974;52.400;9.818;2023-01-29T16:43:53;2.70;99.90
1948;DHT22;974;52.400;9.818;2023-01-29T16:46:37;2.70;99.90
1948;DHT22;974;52.400;9.818;2023-01-29T16:51:53;2.80;99.90
1948;DHT22;974;52.400;9.818;2023-01-29T16:54:23;2.70;99.90
1948;DHT22;974;52.400;9.818;2023-01-29T16:56:51;2.80;99.90
1948;DHT22;974;52.400;9.818;2023-01-29T16:59:22;2.80;99.90
1948;DHT22;974;52.400;9.818;2023-01-29T17:01:53;2.70;99.90
1948;DHT22;974;52.400;9.818;2023-01-29T17:04:19;2.70;99.90
1948;DHT22;974;52.400;9.818;2023-01-29T17:06:48;2.80;99.90
1948;DHT22;974;52.400;9.818;2023-01-29T17:09:23;2.80;99.90
1948;DHT22;974;52.400;9.818;2023-01-29T17:11:57;2.70;99.90
1948;DHT22;974;52.400;9.818;2023-01-29T17:14:24;2.80;99.90
1948;DHT22;974;52.400;9.818;2023-01-29T17:16:55;2.80;99.90
1948;DHT22;974;52.400;9.818;2023-01-29T17:19:25;2.80;99.90
1948;DHT22;974;52.400;9.818;2023-01-29T17:21:51;2.80;99.90
1948;DHT22;974;52.400;9.818;2023-01-29T17:24:16;2.80;99.90
1948;DHT22;974;52.400;9.818;2023-01-29T17:26:42;2.80;99.90
1948;DHT22;974;52.400;9.818;2023-01-29T17:29:12;2.60;99.90
1948;DHT22;974;52.400;9.818;2023-01-29T17:31:40;2.80;99.90
1948;DHT22;974;52.400;9.818;2023-01-29T17:34:10;2.80;99.90
1948;DHT22;974;52.400;9.818;2023-01-29T17:36:37;2.80;99.90
1948;DHT22;974;52.400;9.818;2023-01-29T17:39:17;2.80;99.90
1948;DHT22;974;52.400;9.818;2023-01-29T17:41:48;2.70;99.90
1948;DHT22;974;52.400;9.818;2023-01-29T17:44:15;2.60;99.90
1948;DHT22;974;52.400;9.818;2023-01-29T17:46:40;2.60;99.90
1948;DHT22;974;52.400;9.818;2023-01-29T17:49:22;2.70;99.90
1948;DHT22;974;52.400;9.818;2023-01-29T17:51:49;2.80;99.90
1948;DHT22;974;52.400;9.818;2023-01-29T17:54:14;2.80;99.90
1948;DHT22;974;52.400;9.818;2023-01-29T17:56:40;2.80;99.90
1948;DHT22;974;52.400;9.818;2023-01-29T17:59:17;2.70;99.90
1948;DHT22;974;52.400;9.818;2023-01-29T18:01:44;2.70;99.90
1948;DHT22;974;52.400;9.818;2023-01-29T18:04:10;2.80;99.90
1948;DHT22;974;52.400;9.818;2023-01-29T18:06:36;2.70;99.90
1948;DHT22;974;52.400;9.818;2023-01-29T18:09:02;2.70;99.90
1948;DHT22;974;52.400;9.818;2023-01-29T18:11:28;2.70;99.90
1948;DHT22;974;52.400;9.818;2023-01-29T18:13:54;2.70;99.90
1948;DHT22;974;52.400;9.818;2023-01-29T18:16:20;2.70;99.90
1948;DHT22;974;52.400;9.818;2023-01-29T18:18:47;2.50;99.90
1948;DHT22;974;52.400;9.818;2023-01-29T18:21:12;2.70;99.90
1948;DHT22;974;52.400;9.818;2023-01-29T18:23:37;2.60;99.90
1948;DHT22;974;52.400;9.818;2023-01-29T18:26:03;2.70;99.90
1948;DHT22;974;52.400;9.818;2023-01-29T18:28:29;2.70;99.90
1948;DHT22;974;52.400;9.818;2023-01-29T18:30:55;2.80;99.90
1948;DHT22;974;52.400;9.818;2023-01-29T18:33:21;2.70;99.90
1948;DHT22;974;52.400;9.818;2023-01-29T18:35:48;2.50;99.90